Time;durP1;ratioP1;P1;durP2;ratioP2;P2;SDS_P1;SDS_P2;PMS_P1;PMS_P2;Temp;Humidity;BMP_temperature;BMP_pressure;BME280_temperature;BME280_humidity;BME280_pressure;Samples;Min_cycle;Max_cycle;Signal;HPM_P1;HPM_P2
2022/12/01 00:01:26;;;;;;;36.33;12.63;;;;;;;1.65;84.91;99763.73;1720138;82;21633;-77
2022/12/01 00:03:53;;;;;;;32.60;12.95;;;;;;;1.64;85.27;99761.98;1710843;82;21590;-77
2022/12/01 00:06:21;;;;;;;31.60;12.68;;;;;;;1.64;85.62;99759.42;1718874;82;21616;-77
2022/12/01 00:11:37;;;;;;;34.20;12.80;;;;;;;1.63;85.50;99770.92;1710832;82;21035;-76
2022/12/01 00:14:05;;;;;;;30.23;12.73;;;;;;;1.62;85.21;99768.78;1710861;83;21071;-77
2022/12/01 00:16:33;;;;;;;28.30;11.60;;;;;;;1.64;85.10;99779.93;1718568;82;21033;-77
2022/12/01 00:19:01;;;;;;;32.05;12.35;;;;;;;1.66;85.06;99782.11;1712464;82;20984;-77
2022/12/01 00:21:28;;;;;;;32.85;14.28;;;;;;;1.61;85.09;99780.27;1716018;82;21541;-77
2022/12/01 00:23:57;;;;;;;30.77;12.60;;;;;;;1.62;85.52;99786.72;1720211;82;21038;-76
2022/12/01 00:26:26;;;;;;;32.90;13.10;;;;;;;1.61;85.56;99783.69;1715570;82;21546;-77
2022/12/01 00:28:58;;;;;;;39.10;14.85;;;;;;;1.60;85.50;99774.29;1719964;82;21065;-77
2022/12/01 00:31:26;;;;;;;30.65;12.03;;;;;;;1.52;86.07;99769.41;1714528;82;21077;-76
2022/12/01 00:33:54;;;;;;;29.07;13.00;;;;;;;1.51;86.08;99772.41;1719628;82;21050;-77
2022/12/01 00:36:23;;;;;;;30.52;12.43;;;;;;;1.50;86.31;99780.05;1720732;82;21096;-76
2022/12/01 00:38:53;;;;;;;31.20;13.03;;;;;;;1.51;85.94;99783.94;1712484;82;21042;-78
2022/12/01 00:41:23;;;;;;;34.83;12.47;;;;;;;1.48;85.81;99781.71;1712293;82;21046;-76
2022/12/01 00:43:51;;;;;;;31.40;12.65;;;;;;;1.44;86.45;99785.03;1719599;82;21109;-76
2022/12/01 00:46:18;;;;;;;32.15;12.73;;;;;;;1.44;85.56;99781.20;1720000;82;21125;-77
2022/12/01 00:48:46;;;;;;;30.85;12.68;;;;;;;1.39;85.62;99785.80;1723608;82;21027;-77
2022/12/01 00:51:14;;;;;;;30.72;13.30;;;;;;;1.32;86.22;99785.20;1720582;82;21053;-77
2022/12/01 00:53:42;;;;;;;33.45;13.40;;;;;;;1.29;86.08;99785.11;1725815;82;21017;-77
2022/12/01 00:56:09;;;;;;;34.35;13.03;;;;;;;1.30;85.80;99782.16;1721452;82;20983;-76
2022/12/01 00:58:36;;;;;;;29.50;13.08;;;;;;;1.27;86.06;99782.93;1723556;82;21029;-77
2022/12/01 01:01:05;;;;;;;30.15;11.57;;;;;;;1.28;85.81;99783.39;1721585;82;21026;-77
2022/12/01 01:03:33;;;;;;;29.82;12.00;;;;;;;1.24;85.91;99779.45;1721556;82;20990;-77
2022/12/01 01:06:08;;;;;;;27.05;11.40;;;;;;;1.23;86.26;99782.41;1722008;82;21022;-77
2022/12/01 01:08:36;;;;;;;26.73;11.93;;;;;;;1.20;86.27;99773.39;1721819;82;21675;-77
2022/12/01 01:11:06;;;;;;;26.55;11.68;;;;;;;1.13;86.72;99768.94;1723355;82;21915;-76
2022/12/01 01:13:35;;;;;;;28.87;12.05;;;;;;;1.13;86.42;99767.23;1721641;82;21539;-76
2022/12/01 01:16:07;;;;;;;32.60;13.00;;;;;;;1.15;85.86;99768.17;1727527;82;21048;-77
2022/12/01 01:18:35;;;;;;;33.28;13.03;;;;;;;1.14;86.17;99766.42;1703518;83;21938;-77
2022/12/01 01:21:06;;;;;;;39.00;12.68;;;;;;;1.15;86.18;99769.84;1724191;82;20983;-76
2022/12/01 01:23:34;;;;;;;27.27;11.55;;;;;;;1.12;86.65;99768.50;1720699;82;21007;-77
2022/12/01 01:26:10;;;;;;;30.20;12.37;;;;;;;1.10;86.37;99763.77;1725814;82;20987;-77
2022/12/01 01:28:40;;;;;;;29.63;11.63;;;;;;;1.10;86.41;99764.63;1719982;82;21050;-77
2022/12/01 01:31:10;;;;;;;30.77;12.15;;;;;;;1.12;86.46;99765.94;1726505;82;21006;-77
2022/12/01 01:33:38;;;;;;;32.50;12.13;;;;;;;1.11;87.00;99756.52;1723419;82;20994;-76
2022/12/01 01:36:06;;;;;;;28.20;12.05;;;;;;;1.11;87.01;99748.83;1726493;82;20967;-76
2022/12/01 01:38:34;;;;;;;30.70;12.37;;;;;;;1.13;86.98;99749.31;1716756;82;21042;-76
2022/12/01 01:41:03;;;;;;;31.97;12.82;;;;;;;1.14;86.93;99745.08;1725385;82;21075;-77
2022/12/01 01:43:59;;;;;;;29.70;11.43;;;;;;;1.14;87.04;99742.09;1723527;82;20951;-76
2022/12/01 01:46:33;;;;;;;32.80;12.43;;;;;;;1.18;87.50;99744.31;1724911;82;20936;-76
2022/12/01 01:49:07;;;;;;;;;;;;;;;1.20;87.21;99742.66;1713690;82;21054;-77
2022/12/01 01:51:45;;;;;;;26.57;11.28;;;;;;;1.22;86.93;99733.73;1722955;82;20117;-76
2022/12/01 01:54:20;;;;;;;26.85;11.33;;;;;;;1.22;87.05;99739.71;1711044;83;21092;-77
2022/12/01 01:56:51;;;;;;;22.95;10.03;;;;;;;1.24;87.00;99739.75;1721595;82;21034;-77
2022/12/01 01:59:24;;;;;;;31.15;11.33;;;;;;;1.25;87.21;99738.91;1720971;82;20982;-76
2022/12/01 02:02:04;;;;;;;25.68;11.28;;;;;;;1.26;86.98;99739.38;1722685;82;21099;-76
2022/12/01 02:04:37;;;;;;;29.50;11.03;;;;;;;1.26;86.44;99744.07;1721870;82;21010;-77
2022/12/01 02:07:08;;;;;;;27.70;11.30;;;;;;;1.23;86.95;99743.98;1722319;82;21152;-77
2022/12/01 02:09:36;;;;;;;37.58;12.63;;;;;;;1.25;87.27;99746.16;1721025;82;21030;-77
2022/12/01 02:12:32;;;;;;;21.52;10.98;;;;;;;1.26;86.80;99740.23;1721492;82;20979;-77
2022/12/01 02:15:26;;;;;;;34.45;12.47;;;;;;;1.27;86.83;99741.09;1720128;82;20959;-76
2022/12/01 02:18:24;;;;;;;24.27;10.72;;;;;;;1.30;86.86;99745.02;1718610;82;21093;-77
2022/12/01 02:21:12;;;;;;;26.93;11.55;;;;;;;1.25;86.58;99744.89;1716668;82;21937;-77
2022/12/01 02:23:51;;;;;;;28.12;12.55;;;;;;;1.16;87.01;99739.15;1723301;82;21040;-76
2022/12/01 02:26:45;;;;;;;23.02;10.68;;;;;;;1.20;86.88;99738.81;1708976;82;21629;-76
2022/12/01 02:29:42;;;;;;;25.55;11.90;;;;;;;1.07;86.87;99728.68;1718570;82;21034;-76
2022/12/01 02:32:18;;;;;;;26.33;11.05;;;;;;;1.13;86.95;99741.63;1719518;82;21038;-77
2022/12/01 02:35:23;;;;;;;28.45;11.83;;;;;;;1.09;86.70;99744.95;1717566;82;21026;-77
2022/12/01 02:38:11;;;;;;;26.50;10.48;;;;;;;1.04;86.90;99742.71;1717450;82;21022;-77
2022/12/01 02:40:50;;;;;;;29.15;11.60;;;;;;;1.04;86.68;99750.81;1716265;82;21611;-76
2022/12/01 02:43:44;;;;;;;24.63;10.95;;;;;;;1.03;86.82;99734.98;1726053;82;21544;-77
2022/12/01 02:46:35;;;;;;;23.92;10.72;;;;;;;1.06;87.11;99745.31;1714577;82;21102;-76
2022/12/01 02:49:10;;;;;;;25.20;10.18;;;;;;;1.08;87.19;99747.50;1717238;83;21042;-76
2022/12/01 02:51:43;;;;;;;23.35;9.95;;;;;;;1.11;87.22;99737.31;1717835;83;21872;-76
2022/12/01 02:54:13;;;;;;;26.75;10.30;;;;;;;1.14;87.20;99738.67;1678814;85;21056;-76
2022/12/01 02:56:44;;;;;;;26.10;10.78;;;;;;;1.22;86.88;99737.58;1649430;87;21007;-76
2022/12/01 02:59:14;;;;;;;22.70;10.30;;;;;;;1.25;86.95;99736.34;1663498;85;21002;-77
2022/12/01 03:02:01;;;;;;;27.13;11.03;;;;;;;1.30;86.80;99734.34;1626162;87;21513;-76
2022/12/01 03:05:09;;;;;;;27.73;11.10;;;;;;;1.33;87.05;99732.25;1663240;85;21506;-76
2022/12/01 03:08:13;;;;;;;23.40;9.45;;;;;;;1.38;86.89;99724.27;1648934;87;22019;-77
2022/12/01 03:10:56;;;;;;;27.82;10.95;;;;;;;1.43;86.65;99731.62;1666161;85;21005;-76
2022/12/01 03:13:35;;;;;;;25.12;9.88;;;;;;;1.49;86.35;99732.17;1642186;87;21060;-76
2022/12/01 03:16:26;;;;;;;29.20;11.08;;;;;;;1.51;86.21;99730.12;1680724;85;20996;-77
2022/12/01 03:19:23;;;;;;;25.90;10.30;;;;;;;1.50;86.24;99720.69;1677235;85;20995;-77
2022/12/01 03:22:25;;;;;;;23.60;10.43;;;;;;;1.52;86.14;99725.84;1649433;87;21537;-76
2022/12/01 03:24:56;;;;;;;25.35;10.13;;;;;;;1.51;86.14;99717.30;1650941;86;21072;-77
2022/12/01 03:27:28;;;;;;;24.20;10.20;;;;;;;1.48;86.12;99721.49;1653722;86;21113;-76
2022/12/01 03:30:00;;;;;;;23.90;10.68;;;;;;;1.50;86.44;99727.52;1660504;85;21094;-77
2022/12/01 03:32:46;;;;;;;27.75;12.13;;;;;;;1.40;86.03;99707.23;1652205;85;21065;-77
2022/12/01 03:35:21;;;;;;;20.60;9.45;;;;;;;1.48;86.33;99727.90;1660518;85;21412;-76
2022/12/01 03:38:00;;;;;;;23.70;10.80;;;;;;;1.48;86.31;99733.02;1648209;87;21095;-77
2022/12/01 03:40:31;;;;;;;23.10;9.98;;;;;;;1.46;86.28;99718.89;1660025;85;21626;-77
2022/12/01 03:43:03;;;;;;;24.92;10.68;;;;;;;1.52;86.27;99725.84;1651513;86;21064;-77
2022/12/01 03:45:42;;;;;;;24.05;10.70;;;;;;;1.52;86.19;99727.98;1643663;86;21063;-77
2022/12/01 03:48:10;;;;;;;29.90;10.80;;;;;;;1.56;86.17;99726.36;1653379;86;21061;-77
2022/12/01 03:51:01;;;;;;;23.30;10.08;;;;;;;1.57;85.97;99730.24;1715548;82;20986;-77
2022/12/01 03:53:54;;;;;;;24.87;10.53;;;;;;;1.58;86.01;99736.23;1710649;82;21057;-76
2022/12/01 03:56:25;;;;;;;22.27;9.93;;;;;;;1.63;86.12;99733.33;1713736;82;21023;-77
2022/12/01 03:58:57;;;;;;;25.00;9.98;;;;;;;1.68;85.98;99733.45;1717118;83;21089;-76
2022/12/01 04:01:27;;;;;;;19.40;9.05;;;;;;;1.75;85.55;99740.02;1673874;84;21027;-77
2022/12/01 04:03:54;;;;;;;27.37;12.47;;;;;;;1.69;85.54;99738.61;1633351;86;21049;-77
2022/12/01 04:06:22;;;;;;;22.55;9.78;;;;;;;1.67;85.44;99736.83;1646041;86;21026;-76
2022/12/01 04:08:49;;;;;;;20.75;9.45;;;;;;;1.68;85.48;99748.83;1677213;85;21114;-77
2022/12/01 04:14:03;;;;;;;20.37;9.70;;;;;;;1.67;85.27;99745.41;1648014;86;21599;-77
2022/12/01 04:16:30;;;;;;;24.82;9.78;;;;;;;1.67;85.12;99736.44;1643288;86;21043;-77
2022/12/01 04:18:58;;;;;;;22.10;9.55;;;;;;;1.58;85.03;99731.95;1679683;84;22144;-77
2022/12/01 04:21:25;;;;;;;25.08;9.83;;;;;;;1.56;85.22;99732.77;1647849;87;21058;-76
2022/12/01 04:23:58;;;;;;;34.45;10.15;;;;;;;1.53;85.16;99730.12;1677437;85;21072;-77
2022/12/01 04:26:33;;;;;;;22.82;10.32;;;;;;;1.52;85.11;99733.11;1647230;86;21083;-77
2022/12/01 04:29:04;;;;;;;27.20;10.40;;;;;;;1.50;85.10;99727.09;1647851;85;21079;-77
2022/12/01 04:31:33;;;;;;;26.10;10.28;;;;;;;1.51;85.26;99739.48;1646214;86;21388;-76
2022/12/01 04:34:00;;;;;;;23.12;9.73;;;;;;;1.51;85.20;99736.52;1647008;85;21056;-77
2022/12/01 04:36:33;;;;;;;24.82;9.95;;;;;;;1.51;85.26;99739.48;1649917;86;21046;-76
2022/12/01 04:39:01;;;;;;;21.63;9.67;;;;;;;1.50;84.88;99739.05;1676197;84;20929;-76
2022/12/01 04:41:29;;;;;;;26.77;11.50;;;;;;;1.42;84.91;99735.03;1647038;87;21444;-76
2022/12/01 04:43:56;;;;;;;24.77;11.12;;;;;;;1.34;84.87;99737.84;1645890;86;20975;-76
2022/12/01 04:46:24;;;;;;;27.85;12.05;;;;;;;1.32;85.25;99740.78;1716772;82;20968;-77
2022/12/01 04:48:52;;;;;;;26.82;10.45;;;;;;;1.29;85.12;99740.28;1709800;83;21062;-77
2022/12/01 04:51:21;;;;;;;26.55;11.38;;;;;;;1.25;85.62;99741.05;1719522;83;21830;-76
2022/12/01 04:53:49;;;;;;;23.60;11.15;;;;;;;1.23;85.68;99746.55;1715403;83;21523;-76
2022/12/01 04:56:17;;;;;;;30.08;11.95;;;;;;;1.22;85.87;99744.83;1716817;83;21042;-77
2022/12/01 04:58:45;;;;;;;28.60;12.78;;;;;;;1.18;85.30;99741.75;1714851;83;22181;-76
2022/12/01 05:01:15;;;;;;;28.35;13.22;;;;;;;1.19;85.66;99753.71;1716291;83;21573;-77
2022/12/01 05:03:48;;;;;;;27.95;12.15;;;;;;;1.19;85.58;99749.87;1714391;83;21018;-77
2022/12/01 05:06:23;;;;;;;29.97;12.07;;;;;;;1.19;85.25;99753.32;1717140;83;21079;-77
2022/12/01 05:08:56;;;;;;;33.02;12.20;;;;;;;1.10;84.99;99749.67;1714179;83;21715;-76
2022/12/01 05:11:26;;;;;;;29.57;11.45;;;;;;;1.00;85.70;99749.87;1715972;83;20998;-77
2022/12/01 05:13:53;;;;;;;23.22;9.50;;;;;;;0.92;85.90;99752.24;1714356;83;20968;-77
2022/12/01 05:16:25;;;;;;;25.95;10.82;;;;;;;0.91;85.76;99749.64;1670908;85;21010;-76
2022/12/01 05:21:46;;;;;;;33.35;12.88;;;;;;;0.89;86.12;99754.72;1642114;87;21519;-77
2022/12/01 05:24:15;;;;;;;30.82;11.75;;;;;;;0.88;86.07;99749.58;1644389;85;21918;-77
2022/12/01 05:26:43;;;;;;;28.27;11.38;;;;;;;0.84;86.17;99745.22;1661056;85;21506;-77
2022/12/01 05:29:12;;;;;;;25.43;10.38;;;;;;;0.82;85.91;99741.33;1647136;85;21008;-76
2022/12/01 05:31:41;;;;;;;28.38;10.20;;;;;;;0.79;86.09;99750.20;1663155;85;22372;-77
2022/12/01 05:34:08;;;;;;;18.77;8.83;;;;;;;0.77;86.21;99746.31;1644109;87;21011;-77
2022/12/01 05:36:36;;;;;;;25.17;10.55;;;;;;;0.74;86.25;99739.86;1658949;85;20979;-76
2022/12/01 05:39:04;;;;;;;24.43;11.73;;;;;;;0.74;86.20;99751.80;1650289;87;21050;-77
2022/12/01 05:41:31;;;;;;;27.85;11.35;;;;;;;0.74;86.28;99745.41;1658417;85;21052;-77
2022/12/01 05:43:59;;;;;;;25.77;11.18;;;;;;;0.73;85.69;99747.50;1642645;85;21050;-76
2022/12/01 05:46:26;;;;;;;32.73;12.73;;;;;;;0.71;86.21;99745.31;1642273;85;21029;-77
2022/12/01 05:48:54;;;;;;;31.82;13.32;;;;;;;0.74;86.55;99753.08;1653093;85;21048;-77
2022/12/01 05:51:21;;;;;;;29.05;12.43;;;;;;;0.79;86.74;99741.24;1642492;87;21050;-77
2022/12/01 05:53:49;;;;;;;30.27;14.10;;;;;;;0.86;86.90;99745.70;1649826;87;21092;-76
2022/12/01 05:56:16;;;;;;;30.52;12.18;;;;;;;0.91;86.73;99747.94;1647670;87;20982;-76
2022/12/01 05:58:44;;;;;;;33.42;13.15;;;;;;;0.95;86.90;99746.32;1653775;85;21421;-77
2022/12/01 06:01:11;;;;;;;36.60;13.80;;;;;;;0.96;86.52;99747.64;1646293;87;21036;-76
2022/12/01 06:03:39;;;;;;;33.80;12.73;;;;;;;0.99;86.61;99740.05;1662107;85;20990;-76
2022/12/01 06:06:06;;;;;;;33.75;14.10;;;;;;;1.01;86.04;99752.86;1643036;87;21002;-77
2022/12/01 06:08:34;;;;;;;36.55;13.70;;;;;;;0.95;85.89;99751.02;1646338;87;22025;-77
2022/12/01 06:11:02;;;;;;;39.58;13.83;;;;;;;0.93;86.20;99747.98;1652015;86;21013;-75
2022/12/01 06:13:29;;;;;;;51.40;18.27;;;;;;;0.96;85.83;99747.64;1646233;86;21072;-77
2022/12/01 06:16:03;;;;;;;35.33;14.15;;;;;;;0.93;86.21;99738.59;1651435;86;21351;-76
2022/12/01 06:18:35;;;;;;;30.15;11.18;;;;;;;0.91;85.71;99740.67;1653449;87;21059;-77
2022/12/01 06:21:04;;;;;;;30.27;11.10;;;;;;;0.85;85.95;99746.51;1654588;86;20998;-77
2022/12/01 06:23:33;;;;;;;32.73;12.33;;;;;;;0.86;85.79;99743.56;1649523;85;21004;-76
2022/12/01 06:26:00;;;;;;;25.88;11.93;;;;;;;0.79;86.13;99748.50;1666321;85;21063;-77
2022/12/01 06:28:28;;;;;;;23.98;10.82;;;;;;;0.78;86.22;99748.48;1649285;87;21068;-76
2022/12/01 06:30:55;;;;;;;31.97;11.73;;;;;;;0.82;86.34;99756.69;1652651;87;20982;-77
2022/12/01 06:33:23;;;;;;;25.72;11.10;;;;;;;0.83;85.86;99757.13;1650202;87;20961;-76
2022/12/01 06:35:59;;;;;;;29.95;11.57;;;;;;;0.81;86.00;99759.20;1664310;85;21018;-77
2022/12/01 06:38:31;;;;;;;29.07;11.53;;;;;;;0.82;85.88;99760.53;1662345;85;21074;-77
2022/12/01 06:40:58;;;;;;;41.55;13.05;;;;;;;0.84;86.22;99774.23;1649050;85;21121;-77
2022/12/01 06:43:27;;;;;;;34.23;14.55;;;;;;;0.92;86.51;99770.16;1647419;85;21225;-78
2022/12/01 06:45:54;;;;;;;41.70;13.85;;;;;;;1.00;86.02;99761.39;1662804;85;21061;-77
2022/12/01 06:48:22;;;;;;;37.67;15.75;;;;;;;1.01;85.96;99759.69;1661652;85;21110;-76
2022/12/01 06:50:49;;;;;;;42.08;16.97;;;;;;;1.03;86.35;99755.47;1661743;85;20982;-76
2022/12/01 06:53:16;;;;;;;43.42;17.23;;;;;;;1.10;86.34;99757.36;1650642;86;21048;-77
2022/12/01 06:55:44;;;;;;;41.28;15.55;;;;;;;1.13;86.20;99761.25;1645558;87;21076;-77
2022/12/01 06:58:11;;;;;;;41.75;14.15;;;;;;;1.17;86.12;99761.39;1650679;87;20995;-77
2022/12/01 07:00:39;;;;;;;31.30;13.93;;;;;;;1.21;86.05;99760.16;1643692;85;21079;-76
2022/12/01 07:03:07;;;;;;;31.10;14.28;;;;;;;1.19;86.30;99763.95;1659086;85;21059;-76
2022/12/01 07:05:35;;;;;;;38.53;14.25;;;;;;;1.23;86.32;99760.63;1643824;87;21516;-77
2022/12/01 07:08:02;;;;;;;24.95;11.88;;;;;;;1.24;86.12;99759.82;1651855;87;21667;-78
2022/12/01 07:10:30;;;;;;;31.97;13.10;;;;;;;1.27;86.02;99756.03;1659054;85;21548;-78
2022/12/01 07:12:57;;;;;;;31.27;14.05;;;;;;;1.26;86.05;99751.76;1664305;85;21074;-78
2022/12/01 07:15:25;;;;;;;33.38;14.65;;;;;;;1.27;86.10;99748.77;1650932;87;21043;-78
2022/12/01 07:17:52;;;;;;;31.55;13.68;;;;;;;1.32;86.04;99746.77;1651589;87;21988;-77
2022/12/01 07:20:19;;;;;;;30.17;13.65;;;;;;;1.33;85.89;99748.52;1646992;86;21026;-77
2022/12/01 07:22:47;;;;;;;31.62;12.25;;;;;;;1.33;86.05;99747.23;1638847;87;21604;-77
2022/12/01 07:25:14;;;;;;;32.75;13.62;;;;;;;1.35;85.84;99751.09;1653713;87;21109;-77
2022/12/01 07:27:42;;;;;;;33.60;11.75;;;;;;;1.38;85.88;99743.48;1647737;87;21584;-77
2022/12/01 07:30:10;;;;;;;40.95;14.63;;;;;;;1.41;85.85;99749.94;1653024;85;21556;-77
2022/12/01 07:32:39;;;;;;;28.52;12.82;;;;;;;1.44;85.79;99742.76;1648462;86;21643;-77
2022/12/01 07:35:09;;;;;;;34.00;13.78;;;;;;;1.49;85.75;99747.16;1652301;86;21120;-77
2022/12/01 07:37:36;;;;;;;31.27;12.43;;;;;;;1.52;85.84;99743.78;1646187;87;21034;-77
2022/12/01 07:40:05;;;;;;;29.87;13.03;;;;;;;1.51;85.72;99728.84;1651230;85;21037;-77
2022/12/01 07:42:33;;;;;;;31.50;13.55;;;;;;;1.55;85.82;99736.14;1626710;87;21039;-77
2022/12/01 07:45:01;;;;;;;34.98;13.80;;;;;;;1.64;85.70;99742.77;1664273;85;22279;-77
2022/12/01 07:47:28;;;;;;;32.40;13.83;;;;;;;1.63;85.74;99726.06;1653329;86;21631;-76
2022/12/01 07:49:56;;;;;;;43.42;16.20;;;;;;;1.66;85.75;99730.84;1671508;85;21081;-76
2022/12/01 07:52:23;;;;;;;37.05;15.43;;;;;;;1.74;85.89;99732.29;1655695;86;21542;-77
2022/12/01 07:54:51;;;;;;;35.85;13.58;;;;;;;1.81;85.71;99723.91;1671158;85;21049;-77
2022/12/01 07:57:19;;;;;;;35.38;15.58;;;;;;;1.90;85.63;99732.19;1670296;85;21596;-77
2022/12/01 07:59:46;;;;;;;37.48;15.43;;;;;;;1.94;85.55;99737.82;1668653;85;21514;-77
2022/12/01 08:02:14;;;;;;;30.35;12.98;;;;;;;2.02;85.59;99740.11;1668911;85;21025;-77
2022/12/01 08:04:42;;;;;;;35.80;13.95;;;;;;;2.10;85.31;99737.27;1670435;85;21057;-77
2022/12/01 08:07:09;;;;;;;39.70;13.08;;;;;;;2.16;85.15;99733.55;1672008;85;21090;-77
2022/12/01 08:09:37;;;;;;;37.60;14.33;;;;;;;2.25;85.12;99729.02;1669772;85;21073;-77
2022/12/01 08:12:05;;;;;;;36.60;14.35;;;;;;;2.35;85.04;99727.49;1657324;86;21043;-77
2022/12/01 08:14:32;;;;;;;32.63;15.05;;;;;;;2.46;84.91;99729.81;1669329;85;21098;-77
2022/12/01 08:16:59;;;;;;;30.90;12.47;;;;;;;2.58;84.51;99726.17;1660343;86;21081;-78
2022/12/01 08:19:28;;;;;;;26.52;11.93;;;;;;;2.68;84.16;99730.19;1669082;85;21074;-77
2022/12/01 08:21:56;;;;;;;27.80;12.82;;;;;;;2.78;83.51;99735.92;1659350;86;21056;-77
2022/12/01 08:24:24;;;;;;;28.05;12.82;;;;;;;2.87;83.36;99737.79;1653681;85;21083;-77
2022/12/01 08:26:51;;;;;;;31.00;13.68;;;;;;;2.95;83.23;99728.50;1672175;85;21617;-77
2022/12/01 08:29:19;;;;;;;27.22;12.65;;;;;;;3.01;83.23;99719.61;1654093;86;21982;-76
2022/12/01 08:31:46;;;;;;;22.52;10.98;;;;;;;3.09;82.47;99725.72;1672100;85;21533;-77
2022/12/01 08:34:14;;;;;;;24.75;10.68;;;;;;;3.16;82.37;99721.13;1659629;86;21952;-77
2022/12/01 08:36:42;;;;;;;24.20;10.00;;;;;;;3.23;82.33;99718.64;1671386;85;21074;-77
2022/12/01 08:39:11;;;;;;;26.85;10.43;;;;;;;3.26;82.25;99719.95;1655110;86;21035;-77
2022/12/01 08:41:38;;;;;;;23.18;9.30;;;;;;;3.30;81.97;99716.19;1670751;85;21069;-77
2022/12/01 08:44:05;;;;;;;28.98;11.90;;;;;;;3.31;81.60;99716.62;1659473;86;21166;-77
2022/12/01 08:46:35;;;;;;;25.27;11.38;;;;;;;3.37;81.19;99708.98;1653672;86;22649;-77
2022/12/01 08:49:05;;;;;;;23.85;11.48;;;;;;;3.49;81.85;99709.58;1718916;82;21041;-77
2022/12/01 08:51:33;;;;;;;25.50;11.33;;;;;;;3.53;81.64;99710.48;1713432;82;21031;-77
2022/12/01 08:54:01;;;;;;;30.12;12.50;;;;;;;3.56;81.80;99705.37;1719404;82;21065;-77
2022/12/01 08:56:39;;;;;;;29.23;13.20;;;;;;;3.69;81.53;99703.84;1713177;82;21007;-76
2022/12/01 08:59:07;;;;;;;29.87;12.82;;;;;;;3.72;81.17;99706.03;1717701;82;20986;-77
2022/12/01 09:01:50;;;;;;;25.05;12.68;;;;;;;3.81;80.95;99710.84;1712922;82;20979;-77
2022/12/01 09:04:07;;;;;;;26.05;11.20;;;;;;;3.81;80.38;99710.41;1714556;82;21035;-77
2022/12/01 09:06:44;;;;;;;25.05;11.43;;;;;;;3.83;80.78;99706.14;1713084;82;21094;-77
2022/12/01 09:09:16;;;;;;;26.77;11.43;;;;;;;3.91;78.94;99702.38;1720689;82;21034;-77
2022/12/01 09:11:45;;;;;;;33.15;12.15;;;;;;;3.96;80.06;99698.16;1713141;82;20959;-77
2022/12/01 09:14:15;;;;;;;31.35;12.85;;;;;;;4.00;79.83;99697.35;1718905;82;21534;-77
2022/12/01 09:16:45;;;;;;;23.75;10.55;;;;;;;4.11;80.38;99691.88;1720594;82;20978;-76
2022/12/01 09:19:13;;;;;;;24.95;10.70;;;;;;;4.20;80.13;99688.55;1719615;82;21514;-77
2022/12/01 09:21:42;;;;;;;25.15;10.93;;;;;;;4.26;80.02;99686.04;1716723;82;21863;-77
2022/12/01 09:24:12;;;;;;;23.45;10.82;;;;;;;4.36;80.47;99683.13;1716653;82;20970;-77
2022/12/01 09:26:40;;;;;;;27.10;10.75;;;;;;;4.43;80.47;99674.59;1717266;82;21448;-77
2022/12/01 09:29:12;;;;;;;29.12;10.48;;;;;;;4.55;80.32;99682.42;1721089;82;21057;-77
2022/12/01 09:31:41;;;;;;;27.02;10.48;;;;;;;4.68;80.09;99673.54;1705394;82;21436;-76
2022/12/01 09:34:17;;;;;;;21.60;9.60;;;;;;;4.80;80.04;99676.20;1713382;82;21014;-77
2022/12/01 09:36:45;;;;;;;23.22;11.95;;;;;;;4.86;79.98;99677.53;1715677;82;21830;-77
2022/12/01 09:39:19;;;;;;;25.23;10.55;;;;;;;4.91;78.96;99670.68;1713447;82;21002;-77
2022/12/01 09:41:50;;;;;;;;;;;;;;;5.02;78.81;99673.78;1723693;83;21026;-77
2022/12/01 09:44:33;;;;;;;21.37;10.80;;;;;;;5.08;78.67;99669.95;1715388;82;20207;-77
2022/12/01 09:47:15;;;;;;;18.52;8.53;;;;;;;5.15;78.94;99675.56;1716327;82;21625;-77
2022/12/01 09:50:00;;;;;;;22.65;9.03;;;;;;;5.23;78.23;99676.91;1684354;85;21016;-77
2022/12/01 09:52:42;;;;;;;18.35;8.93;;;;;;;5.28;78.51;99665.77;1677618;85;21968;-77
2022/12/01 09:55:16;;;;;;;20.68;9.68;;;;;;;5.37;78.28;99663.25;1670642;85;21032;-76
2022/12/01 09:57:51;;;;;;;20.72;10.03;;;;;;;5.47;76.48;99668.44;1658896;86;21561;-76
2022/12/01 10:00:27;;;;;;;22.30;9.48;;;;;;;5.49;77.24;99656.41;1660850;86;21651;-76
2022/12/01 10:03:00;;;;;;;23.98;8.98;;;;;;;5.52;74.98;99664.17;1688427;84;21731;-75
2022/12/01 10:05:36;;;;;;;19.05;8.98;;;;;;;5.59;76.33;99655.62;1671088;85;21498;-77
2022/12/01 10:08:07;;;;;;;18.17;8.68;;;;;;;5.58;75.62;99650.86;1654285;86;21034;-76
2022/12/01 10:10:45;;;;;;;21.95;8.80;;;;;;;5.58;74.81;99651.30;1685758;85;20959;-76
2022/12/01 10:13:25;;;;;;;14.95;7.53;;;;;;;5.64;75.87;99647.45;1658469;86;21034;-76
2022/12/01 10:16:15;;;;;;;18.62;8.50;;;;;;;5.68;75.17;99649.18;1689799;84;20988;-76
2022/12/01 10:19:06;;;;;;;14.85;7.85;;;;;;;5.78;74.84;99647.06;1672103;85;20979;-77
2022/12/01 10:21:53;;;;;;;17.42;7.50;;;;;;;5.85;73.17;99648.37;1657911;86;21060;-77
2022/12/01 10:24:44;;;;;;;13.13;7.05;;;;;;;5.94;74.21;99648.41;1672372;85;21044;-76
2022/12/01 10:27:29;;;;;;;15.23;6.95;;;;;;;5.99;74.76;99644.16;1657762;86;20982;-77
2022/12/01 10:30:17;;;;;;;14.40;6.60;;;;;;;6.05;72.49;99641.59;1645779;85;21042;-76
2022/12/01 10:32:55;;;;;;;14.25;7.28;;;;;;;6.13;72.69;99632.57;1686808;83;21063;-76
2022/12/01 10:35:27;;;;;;;15.48;7.17;;;;;;;6.18;73.17;99635.56;1674215;85;21084;-75
2022/12/01 10:38:02;;;;;;;11.38;5.80;;;;;;;6.22;70.53;99629.13;1657172;86;21038;-77
2022/12/01 10:40:34;;;;;;;14.23;6.22;;;;;;;6.24;70.82;99624.83;1686536;85;20963;-76
2022/12/01 10:42:59;;;;;;;11.65;5.42;;;;;;;6.25;71.86;99618.82;1636077;86;21086;-76
2022/12/01 10:45:33;;;;;;;15.08;6.22;;;;;;;6.35;71.19;99620.54;1685772;85;21070;-76
2022/12/01 10:48:20;;;;;;;11.73;5.40;;;;;;;6.33;71.24;99625.70;1670380;85;21520;-77
2022/12/01 10:50:52;;;;;;;10.82;5.70;;;;;;;6.38;70.26;99620.52;1650432;86;21045;-76
2022/12/01 10:53:32;;;;;;;11.73;5.85;;;;;;;6.35;70.66;99626.56;1684770;83;21048;-76
2022/12/01 10:56:08;;;;;;;11.45;4.87;;;;;;;6.36;71.61;99618.38;1681357;85;21545;-76
2022/12/01 10:58:48;;;;;;;10.43;4.80;;;;;;;6.39;70.53;99615.81;1690947;84;20993;-76
2022/12/01 11:01:30;;;;;;;7.65;3.60;;;;;;;6.47;70.22;99623.12;1682496;83;21461;-77
2022/12/01 11:04:14;;;;;;;9.63;4.87;;;;;;;6.51;69.88;99618.83;1672093;85;21005;-78
2022/12/01 11:06:47;;;;;;;10.00;4.22;;;;;;;6.49;68.81;99626.56;1667268;85;21055;-77
2022/12/01 11:09:22;;;;;;;12.60;5.10;;;;;;;6.40;69.64;99617.52;1687429;85;21000;-76
2022/12/01 11:11:58;;;;;;;8.00;4.00;;;;;;;6.44;70.30;99614.06;1655488;86;21022;-77
2022/12/01 11:14:33;;;;;;;11.48;4.58;;;;;;;6.56;70.78;99611.91;1685744;85;20994;-76
2022/12/01 11:17:30;;;;;;;10.90;4.62;;;;;;;6.61;69.50;99608.05;1667379;85;21001;-77
2022/12/01 11:19:58;;;;;;;10.32;4.30;;;;;;;6.62;69.05;99611.91;1683452;85;21472;-77
2022/12/01 11:22:30;;;;;;;11.73;4.92;;;;;;;6.61;69.76;99593.84;1661220;85;21001;-77
2022/12/01 11:25:02;;;;;;;8.78;3.95;;;;;;;6.65;69.10;99601.58;1686319;83;20944;-77
2022/12/01 11:27:38;;;;;;;10.90;5.03;;;;;;;6.75;69.70;99595.53;1655720;86;21566;-77
2022/12/01 11:30:20;;;;;;;8.43;3.87;;;;;;;6.83;69.67;99594.67;1685143;85;20984;-76
2022/12/01 11:32:54;;;;;;;12.07;4.72;;;;;;;6.90;69.34;99592.08;1637378;87;21589;-76
2022/12/01 11:35:27;;;;;;;8.23;4.03;;;;;;;7.05;68.90;99589.02;1684727;85;21615;-77
2022/12/01 11:37:59;;;;;;;11.13;4.43;;;;;;;7.21;69.62;99580.34;1679891;85;21068;-76
2022/12/01 11:40:49;;;;;;;8.75;4.42;;;;;;;7.29;68.55;99586.34;1655564;86;22282;-76
2022/12/01 11:43:24;;;;;;;10.50;4.75;;;;;;;7.27;66.55;99582.05;1686812;85;21063;-77
2022/12/01 11:45:55;;;;;;;13.58;4.00;;;;;;;7.27;67.40;99577.72;1670243;85;21029;-76
2022/12/01 11:48:30;;;;;;;8.70;4.55;;;;;;;7.34;68.11;99584.60;1681619;85;21123;-77
2022/12/01 11:51:18;;;;;;;8.63;4.70;;;;;;;7.44;67.46;99579.38;1645414;86;21046;-77
2022/12/01 11:53:46;;;;;;;9.83;5.22;;;;;;;7.54;67.28;99572.87;1679956;84;21010;-77
2022/12/01 11:56:22;;;;;;;9.23;5.12;;;;;;;7.61;67.34;99576.72;1654974;86;21037;-77
2022/12/01 11:59:07;;;;;;;9.90;4.28;;;;;;;7.61;67.30;99578.86;1654055;87;20987;-77
2022/12/01 12:02:02;;;;;;;16.62;5.10;;;;;;;7.60;66.80;99571.98;1715136;82;21897;-77
2022/12/01 12:05:05;;;;;;;11.25;5.47;;;;;;;7.61;67.10;99576.72;1673299;85;20945;-77